createdAt,value
2023-05-06T00:25:45.215Z,19.8
2023-05-06T00:35:58.822Z,22.9
2023-05-06T00:40:03.013Z,26.9
2023-05-06T00:42:08.270Z,25.1
2023-05-06T00:46:12.614Z,28.8
2023-05-06T00:47:15.256Z,26.5
2023-05-06T00:53:21.711Z,28
2023-05-06T00:55:26.978Z,29.7
2023-05-06T00:57:29.117Z,34.1
2023-05-06T00:59:31.247Z,34.4
2023-05-06T01:01:33.446Z,36.8
2023-05-06T01:03:35.504Z,32.9
2023-05-06T01:05:37.570Z,39.6
2023-05-06T01:07:39.676Z,26.8
2023-05-06T01:09:44.844Z,31.5
2023-05-06T01:15:51.043Z,41.8
2023-05-06T01:24:02.793Z,31.2
2023-05-06T01:30:09.255Z,26.3
2023-05-06T01:32:11.345Z,40.7
2023-05-06T01:34:13.496Z,29.6
2023-05-06T01:36:15.614Z,28.4
2023-05-06T01:38:20.915Z,26.6
2023-05-06T01:42:25.153Z,23
2023-05-06T01:44:53.919Z,23.6
2023-05-06T01:46:55.955Z,27
2023-05-06T01:48:57.977Z,27.8
2023-05-06T01:51:03.152Z,28.3
2023-05-06T01:53:05.285Z,23.8
2023-05-06T01:55:07.862Z,31.5
2023-05-06T01:57:09.544Z,28.3
2023-05-06T01:59:11.692Z,22.9
2023-05-06T02:09:25.476Z,32.3
2023-05-06T02:17:33.929Z,33.8
2023-05-06T02:19:39.272Z,45.5
2023-05-06T02:21:41.424Z,33.1
2023-05-06T02:23:43.479Z,29.3
2023-05-06T02:25:45.573Z,38
2023-05-06T02:36:01.016Z,39.1
2023-05-06T02:41:07.860Z,32.3
2023-05-06T02:43:09.880Z,34.7
2023-05-06T02:45:12.152Z,38.2
2023-05-06T02:47:17.396Z,37
2023-05-06T02:49:19.530Z,47
2023-05-06T02:51:21.656Z,42.9
2023-05-06T02:53:23.768Z,42.1
2023-05-06T02:57:27.926Z,48.9
2023-05-06T02:59:29.953Z,43.6
2023-05-06T03:01:35.197Z,51.5
2023-05-06T03:03:37.267Z,42.4
2023-05-06T03:05:39.398Z,42.8
2023-05-06T03:09:43.580Z,50.4
2023-05-06T03:15:53.123Z,51.3
2023-05-06T03:17:55.170Z,46.6
2023-05-06T03:21:59.408Z,46.1
2023-05-06T03:24:01.570Z,51.1
2023-05-06T03:26:03.726Z,35
2023-05-06T03:28:05.881Z,38.3
2023-05-06T03:30:11.229Z,38.3
2023-05-06T03:32:13.406Z,35.6
2023-05-06T03:34:15.446Z,37.2
2023-05-06T03:35:18.126Z,40.3
2023-05-06T03:41:24.549Z,31.2
2023-05-06T03:43:29.741Z,35.1
2023-05-06T03:51:38.079Z,30
2023-05-06T03:53:40.124Z,34
2023-05-06T03:55:42.245Z,30.6
2023-05-06T03:59:49.776Z,29.6
2023-05-06T04:01:51.949Z,33.9
2023-05-06T04:05:56.189Z,29.6
2023-05-06T04:10:00.392Z,29.6
2023-05-06T04:14:07.808Z,33.1
2023-05-06T04:16:10.033Z,36.3
2023-05-06T04:28:25.958Z,39.3
2023-05-06T04:30:28.092Z,46.9
2023-05-06T04:31:30.810Z,51
2023-05-06T04:33:32.905Z,41.4
2023-05-06T04:35:35.029Z,49.5
2023-05-06T04:37:37.046Z,41.3
2023-05-06T04:39:42.347Z,42.4
2023-05-06T04:41:44.426Z,48
2023-05-06T04:43:46.577Z,49.1
2023-05-06T04:45:48.720Z,54.9
2023-05-06T04:47:50.835Z,59
2023-05-06T04:54:00.285Z,55
2023-05-06T04:56:02.453Z,40.5
2023-05-06T05:00:06.638Z,42.8
2023-05-06T05:02:08.836Z,40.8
2023-05-06T05:06:13.021Z,55
2023-05-06T05:08:18.350Z,51.6
2023-05-06T05:16:26.902Z,52.9
2023-05-06T05:18:28.975Z,72.7
2023-05-06T05:31:11.544Z,37.7
2023-05-06T05:37:21.026Z,45.5
2023-05-06T05:39:23.164Z,45.8
2023-05-06T05:41:25.248Z,44.2
2023-05-06T05:43:27.400Z,44.9
2023-05-06T05:45:29.549Z,41.2
2023-05-06T05:47:31.640Z,45.1
2023-05-06T05:49:36.894Z,42.6
2023-05-06T05:53:41.144Z,43.3
2023-05-06T05:55:43.266Z,47.5
2023-05-06T05:57:45.401Z,44.7
2023-05-06T05:59:47.520Z,44.9
2023-05-06T06:01:49.622Z,44
2023-05-06T06:03:55.217Z,42
2023-05-06T06:05:57.125Z,42.5
2023-05-06T06:07:59.415Z,37.8
2023-05-06T06:10:01.264Z,42.7
2023-05-06T06:14:05.532Z,35
2023-05-06T06:18:13.074Z,42.6
2023-05-06T06:20:15.167Z,41.3
2023-05-06T06:22:17.178Z,33.9
2023-05-06T06:23:19.899Z,33.5
2023-05-06T06:25:21.914Z,41.5
2023-05-06T06:27:24.048Z,33.5
2023-05-06T06:29:26.201Z,33.1
2023-05-06T06:31:31.495Z,33.6
2023-05-06T06:33:33.611Z,41.8
2023-05-06T06:35:35.742Z,31.2
2023-05-06T06:37:37.878Z,40.5
2023-05-06T06:39:39.915Z,30.7
2023-05-06T06:43:44.104Z,27.7
2023-05-06T06:45:49.416Z,37.8
2023-05-06T06:47:51.507Z,34.3
2023-05-06T06:55:59.621Z,32.8
2023-05-06T07:06:13.064Z,28.3
2023-05-06T07:19:31.212Z,23.6
2023-05-06T07:21:33.286Z,24.9
2023-05-06T07:23:35.361Z,28.9
2023-05-06T07:25:37.445Z,25.1
2023-05-06T07:27:42.678Z,28
2023-05-06T07:29:44.703Z,23.2
2023-05-06T07:31:47.747Z,23.8
2023-05-06T07:33:49.837Z,21.7
2023-05-06T07:35:51.887Z,26.9
2023-05-06T07:37:54.005Z,23.1
2023-05-06T07:39:56.064Z,19.2
2023-05-06T07:42:01.264Z,47.1
2023-05-06T07:44:03.373Z,23.4
2023-05-06T07:46:05.433Z,26.7
2023-05-06T07:48:07.533Z,24
2023-05-06T07:52:11.650Z,28.6
2023-05-06T07:54:13.735Z,29.8
2023-05-06T07:58:21.050Z,29.5
2023-05-06T08:00:23.120Z,24.2
2023-05-06T08:02:25.316Z,27.5
2023-05-06T08:04:27.346Z,29.1
2023-05-06T08:06:29.354Z,26.6
2023-05-06T08:15:43.447Z,40
2023-05-06T08:17:45.554Z,31.6
2023-05-06T08:19:47.587Z,23.2
2023-05-06T08:23:56.417Z,35.8
2023-05-06T08:25:58.516Z,30.9
2023-05-06T08:36:08.929Z,29.5
2023-05-06T08:42:18.335Z,28.7
2023-05-06T09:00:40.207Z,26.8
2023-05-06T09:04:44.363Z,26.3
2023-05-06T09:10:53.733Z,34.2
2023-05-06T09:13:22.391Z,29
2023-05-06T09:15:24.444Z,29.2
2023-05-06T09:17:26.903Z,28.5
2023-05-06T09:19:31.752Z,28.9
2023-05-06T09:21:33.856Z,28.5
2023-05-06T09:23:35.919Z,31.1
2023-05-06T09:33:49.452Z,26.8
2023-05-06T09:54:13.412Z,18.7
2023-05-06T09:56:15.492Z,16.8
2023-05-06T09:58:17.570Z,23.1
2023-05-06T10:00:19.642Z,30.1
2023-05-06T10:02:24.970Z,20.1
2023-05-06T10:04:27.114Z,20.8
2023-05-06T10:06:29.047Z,20.8
2023-05-06T10:07:31.659Z,21.5
2023-05-06T10:09:33.724Z,21.4
2023-05-06T10:11:35.780Z,20.4
2023-05-06T10:13:37.857Z,16.3
2023-05-06T10:17:45.233Z,21.5
2023-05-06T10:19:47.241Z,11.5
2023-05-06T10:21:49.329Z,14
2023-05-06T10:23:51.384Z,18.2
2023-05-06T10:25:53.429Z,16.1
2023-05-06T10:27:55.490Z,12.9
2023-05-06T10:30:00.734Z,12.5
2023-05-06T10:32:02.857Z,14.2
2023-05-06T10:34:04.861Z,14
2023-05-06T10:36:06.929Z,13.3
2023-05-06T10:38:08.996Z,15.8
2023-05-06T10:40:11.081Z,11.6
2023-05-06T10:42:13.121Z,13.7
2023-05-06T10:44:18.373Z,14.6
2023-05-06T10:46:20.429Z,13.8
2023-05-06T10:48:22.498Z,13.8
2023-05-06T10:52:26.625Z,18
2023-05-06T10:54:28.691Z,11.8
2023-05-06T10:56:30.748Z,12.2
2023-05-06T10:58:35.963Z,11.3
2023-05-06T11:00:38.045Z,17
2023-05-06T11:02:40.201Z,16.6
2023-05-06T11:03:42.740Z,17.6
2023-05-06T11:07:46.862Z,11.4
2023-05-06T11:09:48.938Z,9.1
2023-05-06T11:15:58.306Z,25.2
2023-05-06T11:18:00.371Z,8.2
2023-05-06T11:20:02.405Z,10.2
2023-05-06T11:22:04.489Z,10
2023-05-06T11:24:06.537Z,18.9
2023-05-06T11:26:11.749Z,10.2
2023-05-06T11:28:13.810Z,8.3
2023-05-06T11:30:15.875Z,12.3
2023-05-06T11:32:18.027Z,12.8
2023-05-06T11:34:20.012Z,13
2023-05-06T11:36:22.056Z,10.9
2023-05-06T11:38:24.113Z,9.9
2023-05-06T11:40:29.335Z,11.1
2023-05-06T11:42:31.382Z,18.8
2023-05-06T11:44:33.452Z,18.8
2023-05-06T11:48:37.573Z,7.8
2023-05-06T11:50:39.647Z,9.2
2023-05-06T11:52:41.689Z,23.9
2023-05-06T11:56:48.981Z,11.7
2023-05-06T11:58:51.044Z,7.6
2023-05-06T11:59:53.674Z,6.7
2023-05-06T12:01:55.715Z,9.8
2023-05-06T12:03:57.945Z,7.6
2023-05-06T12:05:59.848Z,15.6
2023-05-06T12:08:13.320Z,9.7
2023-05-06T12:12:09.191Z,8.4
2023-05-06T12:14:11.257Z,18.1
2023-05-06T12:16:13.361Z,12.3
2023-05-06T12:18:15.355Z,9.2
2023-05-06T12:20:17.428Z,11.3
2023-05-06T12:22:22.678Z,7.1
2023-05-06T12:26:27.446Z,8.7
2023-05-06T12:28:29.459Z,8.2
2023-05-06T12:30:31.516Z,6.5
2023-05-06T12:32:33.582Z,7.2
2023-05-06T12:34:35.634Z,6.6
2023-05-06T12:36:40.858Z,27.5
2023-05-06T12:38:42.869Z,10.4
2023-05-06T12:40:44.945Z,10
2023-05-06T12:42:46.982Z,8.2
2023-05-06T12:44:49.070Z,22.8
2023-05-06T12:48:53.111Z,5.4
2023-05-06T12:59:32.927Z,6.3
2023-05-06T13:01:35.015Z,7.1
2023-05-06T13:03:40.215Z,3.3
2023-05-06T13:11:48.376Z,7.2
2023-05-06T13:24:03.812Z,9.7
2023-05-06T13:26:06.351Z,6.3
2023-05-06T13:32:15.141Z,4.1
2023-05-06T13:38:21.335Z,7.4
2023-05-06T13:40:23.343Z,8.8
2023-05-06T13:42:25.408Z,4
2023-05-06T13:46:32.699Z,7.1
2023-05-06T13:50:36.787Z,5.4
2023-05-06T14:10:00.997Z,4.7
2023-05-06T14:16:11.876Z,11.4
2023-05-06T14:18:13.903Z,11.1
2023-05-06T14:22:18.016Z,20.2
2023-05-06T14:24:20.058Z,16.1
2023-05-06T14:26:22.097Z,11.6
2023-05-06T14:30:29.367Z,8
2023-05-06T14:36:35.553Z,13.9
2023-05-06T14:38:37.605Z,4.8
2023-05-06T14:40:39.684Z,6.8
2023-05-06T14:42:44.873Z,4.4
2023-05-06T14:44:46.923Z,7.8
2023-05-06T14:46:49.001Z,5.4
2023-05-06T14:47:51.658Z,10.2
2023-05-06T14:49:53.675Z,4.3
2023-05-06T14:51:55.728Z,6.4
2023-05-06T15:04:11.269Z,3.4
2023-05-06T15:10:20.605Z,6
2023-05-06T15:12:22.678Z,5.9
2023-05-06T15:14:24.712Z,10.2
2023-05-06T15:16:26.825Z,13.8
2023-05-06T15:22:32.956Z,9.7
2023-05-06T15:24:38.158Z,8.9
2023-05-06T15:26:40.232Z,12.6
2023-05-06T15:28:42.305Z,7.8
2023-05-06T15:36:50.541Z,18.6
2023-05-06T15:40:57.818Z,9.9
2023-05-06T15:42:59.888Z,19.4
2023-05-06T15:44:02.549Z,9.7
2023-05-06T15:46:04.630Z,9.3
2023-05-06T15:48:06.701Z,6.6
2023-05-06T15:50:19.986Z,6.7
2023-05-06T15:52:13.945Z,7.8
2023-05-06T15:56:18.894Z,21.3
2023-05-06T15:58:20.142Z,6.3
2023-05-06T16:00:22.249Z,11.2
2023-05-06T16:02:27.363Z,10.9
2023-05-06T16:04:26.503Z,14.8
2023-05-06T16:08:33.655Z,14.4
2023-05-06T16:10:35.747Z,14.7
2023-05-06T16:12:37.894Z,8
2023-05-06T16:14:39.878Z,6.3
2023-05-06T16:16:42.130Z,8.8
2023-05-06T16:18:44.061Z,9.1
2023-05-06T16:24:53.426Z,13.3
2023-05-06T16:28:57.593Z,16.1
2023-05-06T16:30:59.677Z,11.1
2023-05-06T16:33:01.849Z,12.8
2023-05-06T16:35:06.988Z,15.5
2023-05-06T16:37:09.081Z,16.6
2023-05-06T16:41:39.729Z,25
2023-05-06T16:43:41.808Z,22.7
2023-05-06T16:45:43.910Z,19.1
2023-05-06T16:47:49.249Z,9
2023-05-06T16:49:51.237Z,10
2023-05-06T16:51:53.316Z,13.2
2023-05-06T16:53:55.402Z,8.9
2023-05-06T16:55:57.513Z,10.2
2023-05-06T16:57:59.577Z,21.7
2023-05-06T17:00:01.703Z,8.2
2023-05-06T17:02:06.954Z,7.2
2023-05-06T17:04:08.991Z,14.6
2023-05-06T17:08:13.860Z,11.2
2023-05-06T17:12:17.393Z,11.1
2023-05-06T17:14:19.445Z,24.2
2023-05-06T17:16:24.697Z,13.8
2023-05-06T17:18:26.761Z,10.1
2023-05-06T17:35:49.230Z,12.8
2023-05-06T17:37:51.313Z,20.5
2023-05-06T17:39:53.408Z,18.6
2023-05-06T17:44:00.739Z,36.1
2023-05-06T17:46:02.916Z,24.9
2023-05-06T17:48:04.943Z,43.8
2023-05-06T17:50:07.033Z,39.5
2023-05-06T17:52:09.085Z,174.2
2023-05-06T17:54:11.181Z,42.1
2023-05-06T17:56:13.272Z,39.3
2023-05-06T17:58:18.523Z,43.6
2023-05-06T18:00:20.587Z,62.7
2023-05-06T18:02:22.763Z,81.4
2023-05-06T18:04:24.779Z,88
2023-05-06T18:16:40.461Z,25.4
2023-05-06T18:20:44.592Z,30.6
2023-05-06T18:22:46.670Z,40.3
2023-05-06T18:24:48.762Z,47.1
2023-05-06T18:26:53.978Z,29
2023-05-06T18:28:56.078Z,31.7
2023-05-06T18:30:58.185Z,35.8
2023-05-06T18:32:00.898Z,33.4
2023-05-06T18:48:20.644Z,17.1
2023-05-06T18:50:22.728Z,15.3
2023-05-06T18:52:24.799Z,26.9
2023-05-06T18:56:32.133Z,16.9
2023-05-06T18:58:34.202Z,15.6
2023-05-06T19:04:40.457Z,14.6
2023-05-06T19:06:42.546Z,12.8
2023-05-06T19:08:47.764Z,11.7
2023-05-06T19:16:56.146Z,5.2
2023-05-06T19:18:58.163Z,8.9
2023-05-06T19:23:05.481Z,11.3
2023-05-06T19:25:07.657Z,15.7
2023-05-06T19:27:09.659Z,14.9
2023-05-06T19:28:12.274Z,13.2
2023-05-06T19:30:14.316Z,10.2
2023-05-06T19:32:16.387Z,20.6
2023-05-06T19:34:18.480Z,14.6
2023-05-06T19:42:29.936Z,21.2
2023-05-06T19:44:32.016Z,16.6
2023-05-06T19:48:36.950Z,10.9
2023-05-06T19:50:41.421Z,22.6
2023-05-06T19:54:45.560Z,7.3
2023-05-06T19:58:49.737Z,18.2
2023-05-06T20:00:51.806Z,17.1
2023-05-06T20:02:53.996Z,14.5
2023-05-06T20:05:00.840Z,16.5
2023-05-06T20:07:02.706Z,11.4
2023-05-06T20:09:04.785Z,12.7
2023-05-06T20:11:06.880Z,13.4
2023-05-06T20:13:08.997Z,15.4
2023-05-06T20:15:11.363Z,11.2
2023-05-06T20:17:13.122Z,16.8
2023-05-06T20:19:18.345Z,23.5
2023-05-06T20:21:20.416Z,20.6
2023-05-06T20:23:22.472Z,18.5
2023-05-06T20:25:51.102Z,12.9
2023-05-06T20:27:53.200Z,16.1
2023-05-06T20:29:55.332Z,16.1
2023-05-06T20:32:00.550Z,20.2
2023-05-06T20:34:02.581Z,9.2
2023-05-06T20:50:22.360Z,9.4
2023-05-06T20:54:26.498Z,11.8
2023-05-06T20:56:28.603Z,19.8
2023-05-06T20:58:30.666Z,21.4
2023-05-06T21:00:35.910Z,19.5
2023-05-06T21:02:41.373Z,17.1
2023-05-06T21:06:42.137Z,19.3
2023-05-06T21:10:46.291Z,13.2
2023-05-06T21:14:53.596Z,23.8
2023-05-06T21:18:57.718Z,13.5
2023-05-06T21:20:00.324Z,23
2023-05-06T21:22:02.440Z,22.4
2023-05-06T21:24:04.486Z,21.7
2023-05-06T21:26:06.572Z,19
2023-05-06T21:46:33.645Z,18.5
2023-05-06T21:56:47.118Z,19.7
2023-05-06T21:58:49.213Z,16.7
2023-05-06T22:00:51.316Z,24.4
2023-05-06T22:02:53.432Z,27.2
2023-05-06T22:04:55.423Z,31.6
2023-05-06T22:06:57.506Z,32.2
2023-05-06T22:08:59.585Z,37.2
2023-05-06T22:15:09.438Z,29.2
2023-05-06T22:16:11.575Z,31
2023-05-06T22:20:15.667Z,25.1
2023-05-06T22:22:17.735Z,29
2023-05-06T22:24:22.962Z,24.8
2023-05-06T22:26:25.004Z,32.2
2023-05-06T22:28:27.116Z,28.2
2023-05-06T22:32:31.296Z,19
2023-05-06T22:36:35.396Z,29.6
2023-05-06T22:38:40.587Z,34.7
2023-05-06T22:40:42.648Z,22.3
2023-05-06T22:42:44.710Z,34.5
2023-05-06T22:44:46.781Z,20.7
2023-05-06T22:48:50.903Z,26.9
2023-05-06T22:50:52.979Z,22.4
2023-05-06T22:52:58.522Z,28.3
2023-05-06T22:55:00.292Z,27.4
2023-05-06T22:57:02.364Z,26.4
2023-05-06T23:01:06.519Z,21.9
2023-05-06T23:03:08.607Z,26.5
2023-05-06T23:05:10.872Z,27
2023-05-06T23:11:19.973Z,23.5
2023-05-06T23:12:22.585Z,24.6
2023-05-06T23:14:24.684Z,25.1
2023-05-06T23:16:26.756Z,26.7
2023-05-06T23:18:28.818Z,24.8
2023-05-06T23:24:38.160Z,24.7
2023-05-06T23:26:40.258Z,20.7
2023-05-06T23:28:42.321Z,24.9
2023-05-06T23:34:51.692Z,21.2
2023-05-06T23:38:55.816Z,21.6
2023-05-06T23:45:02.063Z,25.5
2023-05-06T23:47:04.114Z,20.1
2023-05-06T23:49:09.351Z,29.4
2023-05-06T23:51:11.393Z,22.9
2023-05-06T23:53:13.477Z,24.2
